createdAt,value
2019-03-06T00:00:32.711Z,95263.66
2019-03-06T00:05:29.733Z,95289.56
2019-03-06T00:10:31.594Z,95305.56
2019-03-06T00:15:29.970Z,95331.25
2019-03-06T00:20:27.071Z,95327.41
2019-03-06T00:25:24.116Z,95326.05
2019-03-06T00:30:21.288Z,95334.66
2019-03-06T00:35:27.410Z,95330.52
2019-03-06T00:40:42.947Z,95335.95
2019-03-06T00:45:40.059Z,95335.33
2019-03-06T00:50:37.217Z,95334.33
2019-03-06T00:55:34.264Z,95338.73
2019-03-06T01:00:35.605Z,95338.59
2019-03-06T01:05:32.677Z,95332.91
2019-03-06T01:10:30.822Z,95327.88
2019-03-06T01:15:27.903Z,95340.06
2019-03-06T01:20:25.032Z,95330.09
2019-03-06T01:25:24.264Z,95332.83
2019-03-06T01:30:24.524Z,95336.72
2019-03-06T01:35:23.384Z,95330.22
2019-03-06T01:40:22.304Z,95335.35
2019-03-06T01:45:19.564Z,95324.64
2019-03-06T01:50:16.670Z,95329.81
2019-03-06T01:55:13.936Z,95319.43
2019-03-06T02:00:15.673Z,95323.83
2019-03-06T02:05:12.752Z,95330.36
2019-03-06T02:10:12.878Z,95337.72
2019-03-06T02:15:16.279Z,95335.91
2019-03-06T02:20:19.160Z,95343.80
2019-03-06T02:25:16.126Z,95344.44
2019-03-06T02:30:18.126Z,95350.23
2019-03-06T02:35:16.126Z,95350.27
2019-03-06T02:40:13.242Z,95356.66
2019-03-06T02:45:16.947Z,95365.50
2019-03-06T02:50:18.045Z,95366.69
2019-03-06T02:55:16.705Z,95374.15
2019-03-06T03:00:19.998Z,95374.37
2019-03-06T03:05:19.076Z,95391.05
2019-03-06T03:10:16.192Z,95384.24
2019-03-06T03:15:13.252Z,95392.85
2019-03-06T03:20:10.483Z,95401.24
2019-03-06T03:25:07.751Z,95408.86
2019-03-06T03:30:10.001Z,95412.81
2019-03-06T03:35:07.201Z,95421.76
2019-03-06T03:40:10.154Z,95427.27
2019-03-06T03:45:11.433Z,95437.88
2019-03-06T03:50:09.453Z,95440.98
2019-03-06T03:55:15.472Z,95453.88
2019-03-06T04:00:21.158Z,95458.25
2019-03-06T04:05:18.250Z,95457.75
2019-03-06T04:10:15.514Z,95471.39
2019-03-06T04:15:15.838Z,95469.36
2019-03-06T04:20:14.469Z,95482.27
2019-03-06T04:25:11.767Z,95482.72
2019-03-06T04:30:16.857Z,95492.73
2019-03-06T04:35:13.894Z,95500.28
2019-03-06T04:40:13.392Z,95503.86
2019-03-06T04:45:15.107Z,95522.95
2019-03-06T04:50:15.399Z,95533.39
2019-03-06T04:55:14.071Z,95540.98
2019-03-06T05:00:19.391Z,95537.66
2019-03-06T05:05:16.444Z,95548.59
2019-03-06T05:10:13.746Z,95560.00
2019-03-06T05:15:15.492Z,95565.68
2019-03-06T05:20:12.649Z,95572.00
2019-03-06T05:25:09.624Z,95565.73
2019-03-06T05:30:12.911Z,95581.67
2019-03-06T05:35:24.405Z,95597.02
2019-03-06T05:40:21.757Z,95612.30
2019-03-06T05:45:18.782Z,95618.06
2019-03-06T05:50:15.775Z,95623.08
2019-03-06T05:55:12.873Z,95629.33
2019-03-06T06:00:16.449Z,95643.70
2019-03-06T06:05:13.536Z,95652.07
2019-03-06T06:10:15.229Z,95653.64
2019-03-06T06:15:14.090Z,95655.13
2019-03-06T06:20:13.439Z,95671.92
2019-03-06T06:25:10.392Z,95680.78
2019-03-06T06:30:10.502Z,95680.02
2019-03-06T06:35:10.971Z,95688.05
2019-03-06T06:40:13.139Z,95695.86
2019-03-06T06:45:17.793Z,95717.53
2019-03-06T06:50:16.900Z,95715.94
2019-03-06T06:55:31.651Z,95744.75
2019-03-06T07:01:00.133Z,95740.59
2019-03-06T07:06:01.887Z,95741.98
2019-03-06T07:11:16.558Z,95755.06
2019-03-06T07:16:18.251Z,95762.87
2019-03-06T07:21:21.903Z,95763.52
2019-03-06T07:26:35.118Z,95774.19
2019-03-06T07:31:36.615Z,95778.98
2019-03-06T07:36:44.554Z,95782.48
2019-03-06T07:41:43.320Z,95792.32
2019-03-06T07:46:50.715Z,95797.00
2019-03-06T07:52:06.212Z,95800.69
2019-03-06T07:57:09.781Z,95811.33
2019-03-06T08:02:38.480Z,95823.78
2019-03-06T08:07:35.406Z,95826.63
2019-03-06T08:12:34.344Z,95833.06
2019-03-06T08:17:51.474Z,95839.99
2019-03-06T08:22:55.450Z,95845.48
2019-03-06T08:27:52.912Z,95853.52
2019-03-06T08:32:52.108Z,95865.20
2019-03-06T08:37:49.135Z,95859.94
2019-03-06T08:42:46.288Z,95872.66
2019-03-06T08:47:51.659Z,95881.63
2019-03-06T08:52:50.534Z,95884.08
2019-03-06T08:57:50.211Z,95884.09
2019-03-06T09:03:04.414Z,95898.25
2019-03-06T09:08:28.621Z,95889.03
2019-03-06T09:13:36.468Z,95884.54
2019-03-06T09:18:35.479Z,95886.89
2019-03-06T09:23:34.489Z,95886.45
2019-03-06T09:28:44.297Z,95894.94
2019-03-06T09:33:45.967Z,95903.22
2019-03-06T09:38:42.797Z,95902.22
2019-03-06T09:43:51.142Z,95912.50
2019-03-06T09:48:54.562Z,95909.51
2019-03-06T09:53:53.510Z,95906.81
2019-03-06T09:59:03.144Z,95915.89
2019-03-06T10:04:00.048Z,95924.58
2019-03-06T10:08:58.869Z,95919.28
2019-03-06T10:13:59.364Z,95925.52
2019-03-06T10:19:09.585Z,95921.91
2019-03-06T10:24:06.767Z,95932.09
2019-03-06T10:29:04.156Z,95931.33
2019-03-06T10:34:01.411Z,95940.92
2019-03-06T10:38:58.479Z,95941.77
2019-03-06T10:43:57.493Z,95936.77
2019-03-06T10:48:54.656Z,95935.83
2019-03-06T10:53:53.565Z,95944.45
2019-03-06T10:58:53.124Z,95935.13
2019-03-06T11:03:54.961Z,95941.04
2019-03-06T11:08:52.049Z,95932.09
2019-03-06T11:13:52.848Z,95930.25
2019-03-06T11:18:49.902Z,95933.26
2019-03-06T11:23:47.295Z,95934.14
2019-03-06T11:28:44.357Z,95945.38
2019-03-06T11:33:42.779Z,95936.23
2019-03-06T11:38:39.824Z,95940.74
2019-03-06T11:43:36.799Z,95949.70
2019-03-06T11:48:33.812Z,95953.75
2019-03-06T11:53:37.907Z,95955.66
2019-03-06T11:58:34.949Z,95957.61
2019-03-06T12:03:35.960Z,95957.59
2019-03-06T12:08:33.061Z,95962.05
2019-03-06T12:13:30.251Z,95966.98
2019-03-06T12:18:27.466Z,95968.22
2019-03-06T12:23:26.528Z,95961.81
2019-03-06T12:28:25.526Z,95969.78
2019-03-06T12:33:26.576Z,95975.88
2019-03-06T12:38:25.588Z,95984.19
2019-03-06T12:43:29.818Z,95978.17
2019-03-06T12:48:27.230Z,95981.16
2019-03-06T12:53:28.701Z,95984.06
2019-03-06T12:58:26.088Z,95972.95
2019-03-06T13:03:23.295Z,95981.62
2019-03-06T13:08:20.495Z,95986.48
2019-03-06T13:13:17.514Z,95978.09
2019-03-06T13:18:16.757Z,95974.61
2019-03-06T13:23:13.834Z,95980.64
2019-03-06T13:28:12.960Z,95976.52
2019-03-06T13:33:13.902Z,95973.53
2019-03-06T13:38:16.482Z,95958.50
2019-03-06T13:43:15.125Z,95944.09
2019-03-06T13:48:12.255Z,95948.52
2019-03-06T13:53:09.421Z,95954.12
2019-03-06T13:58:06.968Z,95954.27
2019-03-06T14:03:04.871Z,95942.91
2019-03-06T14:08:02.648Z,95946.12
2019-03-06T14:12:59.566Z,95942.80
2019-03-06T14:17:56.638Z,95950.55
2019-03-06T14:22:53.725Z,95941.79
2019-03-06T14:27:51.426Z,95933.72
2019-03-06T14:32:49.130Z,95938.66
2019-03-06T14:37:46.186Z,95936.56
2019-03-06T14:42:43.199Z,95939.48
2019-03-06T14:47:40.879Z,95938.42
2019-03-06T14:52:37.914Z,95922.94
2019-03-06T14:57:34.928Z,95935.59
2019-03-06T15:02:32.258Z,95934.80
2019-03-06T15:07:29.928Z,95941.73
2019-03-06T15:12:26.937Z,95936.47
2019-03-06T15:17:24.256Z,95937.91
2019-03-06T15:22:21.281Z,95948.56
2019-03-06T15:27:19.435Z,95946.05
2019-03-06T15:32:16.503Z,95945.72
2019-03-06T15:37:13.765Z,95949.48
2019-03-06T15:42:11.285Z,95943.48
2019-03-06T15:47:08.459Z,95948.58
2019-03-06T15:52:07.398Z,95951.23
2019-03-06T15:57:07.050Z,95959.55
2019-03-06T16:02:04.076Z,95970.91
2019-03-06T16:07:02.620Z,95972.53
2019-03-06T16:12:00.922Z,95972.15
2019-03-06T16:16:59.286Z,95974.55
2019-03-06T16:21:56.305Z,95975.05
2019-03-06T16:26:54.100Z,95980.88
2019-03-06T16:31:51.163Z,95982.03
2019-03-06T16:36:48.329Z,95970.56
2019-03-06T16:41:45.268Z,95974.80
2019-03-06T16:46:42.262Z,95967.80
2019-03-06T16:51:39.250Z,95959.63
2019-03-06T16:56:36.310Z,95967.28
2019-03-06T17:01:33.458Z,95969.14
2019-03-06T17:06:30.650Z,95976.11
2019-03-06T17:11:27.622Z,95975.84
2019-03-06T17:16:25.982Z,95977.97
2019-03-06T17:21:23.149Z,95976.31
2019-03-06T17:26:20.783Z,95973.73
2019-03-06T17:31:17.868Z,95965.47
2019-03-06T17:36:15.026Z,95971.36
2019-03-06T17:41:12.171Z,95958.89
2019-03-06T17:46:10.575Z,95960.84
2019-03-06T17:51:07.620Z,95966.05
2019-03-06T17:56:04.697Z,95971.87
2019-03-06T18:01:06.293Z,95971.69
2019-03-06T18:06:07.312Z,95966.70
2019-03-06T18:11:04.646Z,95968.23
2019-03-06T18:16:01.709Z,95951.59
2019-03-06T18:20:59.323Z,95948.75
2019-03-06T18:25:58.364Z,95946.09
2019-03-06T18:30:55.339Z,95936.44
2019-03-06T18:35:52.441Z,95936.94
2019-03-06T18:40:49.478Z,95928.10
2019-03-06T18:45:46.486Z,95928.73
2019-03-06T18:50:43.531Z,95928.86
2019-03-06T18:55:40.664Z,95930.69
2019-03-06T19:00:37.882Z,95925.61
2019-03-06T19:05:36.967Z,95914.05
2019-03-06T19:10:34.222Z,95913.05
2019-03-06T19:15:31.299Z,95912.64
2019-03-06T19:20:28.385Z,95915.52
2019-03-06T19:25:26.367Z,95904.91
2019-03-06T19:30:26.193Z,95907.35
2019-03-06T19:35:25.552Z,95899.21
2019-03-06T19:40:22.623Z,95902.42
2019-03-06T19:45:24.821Z,95898.61
2019-03-06T19:50:26.324Z,95897.34
2019-03-06T19:55:23.495Z,95891.03
2019-03-06T20:00:22.714Z,95880.23
2019-03-06T20:05:20.849Z,95877.25
2019-03-06T20:10:18.654Z,95887.38
2019-03-06T20:15:18.313Z,95885.36
2019-03-06T20:20:17.837Z,95886.70
2019-03-06T20:25:17.211Z,95883.38
2019-03-06T20:30:23.268Z,95876.55
2019-03-06T20:35:22.297Z,95891.59
2019-03-06T20:40:19.801Z,95877.98
2019-03-06T20:45:17.982Z,95883.48
2019-03-06T20:50:18.551Z,95879.88
2019-03-06T20:55:16.096Z,95875.88
2019-03-06T21:00:22.946Z,95865.05
2019-03-06T21:05:20.127Z,95863.42
2019-03-06T21:10:19.681Z,95856.73
2019-03-06T21:15:23.326Z,95851.20
2019-03-06T21:20:22.781Z,95861.48
2019-03-06T21:25:20.897Z,95850.80
2019-03-06T21:30:40.524Z,95858.09
2019-03-06T21:35:37.724Z,95876.22
2019-03-06T21:40:34.874Z,95864.58
2019-03-06T21:45:33.738Z,95856.14
2019-03-06T21:50:30.796Z,95853.64
2019-03-06T21:55:31.190Z,95865.06
2019-03-06T22:00:28.427Z,95850.81
2019-03-06T22:05:25.587Z,95855.63
2019-03-06T22:10:22.773Z,95840.05
2019-03-06T22:15:21.253Z,95839.89
2019-03-06T22:20:18.478Z,95837.69
2019-03-06T22:25:17.760Z,95830.81
2019-03-06T22:30:22.615Z,95825.17
2019-03-06T22:35:19.999Z,95830.64
2019-03-06T22:40:21.030Z,95824.79
2019-03-06T22:45:19.815Z,95825.56
2019-03-06T22:50:18.411Z,95816.81
2019-03-06T22:55:19.460Z,95818.05
2019-03-06T23:00:45.339Z,95822.23
2019-03-06T23:05:42.523Z,95805.23
2019-03-06T23:10:39.970Z,95814.33
2019-03-06T23:15:38.926Z,95814.36
2019-03-06T23:20:36.178Z,95805.69
2019-03-06T23:25:33.316Z,95801.05
2019-03-06T23:30:30.514Z,95799.56
2019-03-06T23:35:27.650Z,95786.05
2019-03-06T23:40:27.399Z,95780.90
2019-03-06T23:45:24.532Z,95774.30
2019-03-06T23:50:21.638Z,95773.98
2019-03-06T23:55:18.688Z,95757.63
